Terminal Aerodrome Forecast
Issued by NWS Charleston, WV

Current Version | Previous Version | Graphics & Text | Print | Product List | Glossary On
Versions: 1 2 3 4 5 6 7 8 9 10 11 12 13 14 15 16 17 18 19 20 21 22 23 24 25
000
FTUS41 KRLX 222059 AAB
TAFCRW
TAF AMD
KCRW 222059Z 2221/2318 26003KT P6SM FEW045 SCT060 BKN170
     FM230800 00000KT 6SM BR SCT130
     FM231000 00000KT 5SM BR SCT130
     FM231300 00000KT P6SM SCT035=

USA.gov is the U.S. government's official web portal to all federal, state and local government web resources and services.